sensor_id;sensor_type;location;lat;lon;timestamp;P1;durP1;ratioP1;P2;durP2;ratioP2
42768;SDS011;28423;60.010;30.406;2022-08-23T13:19:27;12.38;;;4.38;;
42768;SDS011;28423;60.010;30.406;2022-08-23T13:46:14;18.58;;;4.07;;
42768;SDS011;28423;60.010;30.406;2022-08-23T13:48:45;10.45;;;3.80;;
42768;SDS011;28423;60.010;30.406;2022-08-23T13:51:19;7.32;;;4.18;;
42768;SDS011;28423;60.010;30.406;2022-08-23T13:53:51;10.20;;;4.03;;
42768;SDS011;28423;60.010;30.406;2022-08-23T13:56:18;9.25;;;4.90;;
42768;SDS011;28423;60.010;30.406;2022-08-23T13:58:50;7.63;;;4.60;;
42768;SDS011;28423;60.010;30.406;2022-08-23T14:01:18;9.93;;;5.28;;
42768;SDS011;28423;60.010;30.406;2022-08-23T14:03:44;9.93;;;4.35;;
42768;SDS011;28423;60.010;30.406;2022-08-23T14:06:15;10.73;;;4.53;;
42768;SDS011;28423;60.010;30.406;2022-08-23T14:08:46;9.90;;;4.95;;
42768;SDS011;28423;60.010;30.406;2022-08-23T14:11:12;9.35;;;4.55;;
42768;SDS011;28423;60.010;30.406;2022-08-23T14:13:42;9.65;;;4.20;;
42768;SDS011;28423;60.010;30.406;2022-08-23T14:16:09;8.65;;;4.38;;
42768;SDS011;28423;60.010;30.406;2022-08-23T14:18:44;12.68;;;4.93;;
42768;SDS011;28423;60.010;30.406;2022-08-23T14:21:10;14.07;;;4.78;;
42768;SDS011;28423;60.010;30.406;2022-08-23T14:23:35;8.10;;;4.45;;
42768;SDS011;28423;60.010;30.406;2022-08-23T14:26:01;9.05;;;4.45;;
42768;SDS011;28423;60.010;30.406;2022-08-23T14:28:27;16.92;;;5.03;;
42768;SDS011;28423;60.010;30.406;2022-08-23T14:30:54;9.82;;;4.57;;
42768;SDS011;28423;60.010;30.406;2022-08-23T14:33:19;9.57;;;4.80;;
42768;SDS011;28423;60.010;30.406;2022-08-23T14:35:46;9.35;;;4.57;;
42768;SDS011;28423;60.010;30.406;2022-08-23T14:38:12;7.65;;;4.72;;
42768;SDS011;28423;60.010;30.406;2022-08-23T14:40:40;7.45;;;4.70;;
42768;SDS011;28423;60.010;30.406;2022-08-23T14:43:15;9.70;;;4.30;;
42768;SDS011;28423;60.010;30.406;2022-08-23T14:45:40;11.57;;;4.90;;
42768;SDS011;28423;60.010;30.406;2022-08-23T14:48:06;8.38;;;4.15;;
42768;SDS011;28423;60.010;30.406;2022-08-23T14:50:31;9.30;;;4.70;;
42768;SDS011;28423;60.010;30.406;2022-08-23T14:52:57;12.27;;;5.15;;
42768;SDS011;28423;60.010;30.406;2022-08-23T14:55:23;11.52;;;4.80;;
42768;SDS011;28423;60.010;30.406;2022-08-23T14:57:48;11.45;;;5.25;;
42768;SDS011;28423;60.010;30.406;2022-08-23T15:00:15;9.82;;;4.95;;
42768;SDS011;28423;60.010;30.406;2022-08-23T15:02:42;8.77;;;4.88;;
42768;SDS011;28423;60.010;30.406;2022-08-23T15:05:09;13.20;;;4.93;;
42768;SDS011;28423;60.010;30.406;2022-08-23T15:07:36;11.48;;;4.63;;
42768;SDS011;28423;60.010;30.406;2022-08-23T15:10:02;8.23;;;4.90;;
42768;SDS011;28423;60.010;30.406;2022-08-23T15:12:29;10.88;;;4.70;;
42768;SDS011;28423;60.010;30.406;2022-08-23T15:14:55;10.93;;;5.70;;
42768;SDS011;28423;60.010;30.406;2022-08-23T15:17:20;10.48;;;4.70;;
42768;SDS011;28423;60.010;30.406;2022-08-23T15:19:46;11.25;;;5.15;;
42768;SDS011;28423;60.010;30.406;2022-08-23T15:22:12;8.55;;;4.68;;
42768;SDS011;28423;60.010;30.406;2022-08-23T15:24:37;9.20;;;4.47;;
42768;SDS011;28423;60.010;30.406;2022-08-23T15:27:04;8.95;;;4.82;;
42768;SDS011;28423;60.010;30.406;2022-08-23T15:29:31;13.02;;;5.70;;
42768;SDS011;28423;60.010;30.406;2022-08-23T15:31:56;12.20;;;5.18;;
42768;SDS011;28423;60.010;30.406;2022-08-23T15:34:22;10.20;;;4.90;;
42768;SDS011;28423;60.010;30.406;2022-08-23T15:36:48;7.93;;;4.78;;
42768;SDS011;28423;60.010;30.406;2022-08-23T15:39:17;9.48;;;4.70;;
42768;SDS011;28423;60.010;30.406;2022-08-23T15:41:42;7.13;;;5.18;;
42768;SDS011;28423;60.010;30.406;2022-08-23T15:44:08;7.78;;;5.20;;
42768;SDS011;28423;60.010;30.406;2022-08-23T15:46:34;11.00;;;5.82;;
42768;SDS011;28423;60.010;30.406;2022-08-23T15:49:04;10.55;;;6.32;;
42768;SDS011;28423;60.010;30.406;2022-08-23T15:51:35;8.50;;;5.13;;
42768;SDS011;28423;60.010;30.406;2022-08-23T15:54:01;9.15;;;4.78;;
42768;SDS011;28423;60.010;30.406;2022-08-23T15:56:29;14.90;;;5.30;;
42768;SDS011;28423;60.010;30.406;2022-08-23T15:58:58;8.68;;;5.25;;
42768;SDS011;28423;60.010;30.406;2022-08-23T16:01:27;10.05;;;5.32;;
42768;SDS011;28423;60.010;30.406;2022-08-23T16:03:57;11.32;;;5.72;;
42768;SDS011;28423;60.010;30.406;2022-08-23T16:06:24;17.20;;;8.25;;
42768;SDS011;28423;60.010;30.406;2022-08-23T16:08:50;9.57;;;5.75;;
42768;SDS011;28423;60.010;30.406;2022-08-23T16:11:17;12.45;;;5.43;;
42768;SDS011;28423;60.010;30.406;2022-08-23T16:13:44;20.23;;;6.18;;
42768;SDS011;28423;60.010;30.406;2022-08-23T16:16:24;13.50;;;6.45;;
42768;SDS011;28423;60.010;30.406;2022-08-23T16:18:55;16.08;;;5.93;;
42768;SDS011;28423;60.010;30.406;2022-08-23T16:21:23;9.65;;;6.15;;
42768;SDS011;28423;60.010;30.406;2022-08-23T16:23:51;7.15;;;4.70;;
42768;SDS011;28423;60.010;30.406;2022-08-23T16:26:18;13.27;;;6.15;;
42768;SDS011;28423;60.010;30.406;2022-08-23T16:28:47;6.32;;;5.55;;
42768;SDS011;28423;60.010;30.406;2022-08-23T16:31:15;9.55;;;6.45;;
42768;SDS011;28423;60.010;30.406;2022-08-23T16:33:41;17.40;;;7.65;;
42768;SDS011;28423;60.010;30.406;2022-08-23T16:36:07;14.45;;;6.55;;
42768;SDS011;28423;60.010;30.406;2022-08-23T16:38:33;12.30;;;6.50;;
42768;SDS011;28423;60.010;30.406;2022-08-23T16:40:59;15.55;;;6.88;;
42768;SDS011;28423;60.010;30.406;2022-08-23T16:43:25;12.18;;;6.55;;
42768;SDS011;28423;60.010;30.406;2022-08-23T16:45:51;9.73;;;6.78;;
42768;SDS011;28423;60.010;30.406;2022-08-23T16:48:17;13.63;;;7.03;;
42768;SDS011;28423;60.010;30.406;2022-08-23T16:50:42;11.65;;;6.85;;
42768;SDS011;28423;60.010;30.406;2022-08-23T16:53:09;21.50;;;7.57;;
42768;SDS011;28423;60.010;30.406;2022-08-23T16:55:35;14.00;;;7.85;;
42768;SDS011;28423;60.010;30.406;2022-08-23T16:58:02;10.00;;;6.65;;
42768;SDS011;28423;60.010;30.406;2022-08-23T17:00:28;10.30;;;6.90;;
42768;SDS011;28423;60.010;30.406;2022-08-23T17:02:54;16.92;;;7.78;;
42768;SDS011;28423;60.010;30.406;2022-08-23T17:05:20;12.02;;;7.10;;
42768;SDS011;28423;60.010;30.406;2022-08-23T17:07:46;11.10;;;6.00;;
42768;SDS011;28423;60.010;30.406;2022-08-23T17:10:13;14.55;;;8.10;;
42768;SDS011;28423;60.010;30.406;2022-08-23T17:12:41;23.52;;;12.77;;
42768;SDS011;28423;60.010;30.406;2022-08-23T17:15:09;9.80;;;6.57;;
42768;SDS011;28423;60.010;30.406;2022-08-23T17:17:40;13.80;;;6.22;;
42768;SDS011;28423;60.010;30.406;2022-08-23T17:20:09;13.80;;;6.82;;
42768;SDS011;28423;60.010;30.406;2022-08-23T17:22:36;11.10;;;6.38;;
42768;SDS011;28423;60.010;30.406;2022-08-23T17:25:01;14.35;;;6.35;;
42768;SDS011;28423;60.010;30.406;2022-08-23T17:27:28;15.18;;;6.28;;
42768;SDS011;28423;60.010;30.406;2022-08-23T17:29:54;9.40;;;5.75;;
42768;SDS011;28423;60.010;30.406;2022-08-23T17:32:20;11.52;;;5.20;;
42768;SDS011;28423;60.010;30.406;2022-08-23T17:34:46;13.23;;;6.20;;
42768;SDS011;28423;60.010;30.406;2022-08-23T17:37:18;9.45;;;5.50;;
42768;SDS011;28423;60.010;30.406;2022-08-23T17:39:46;16.15;;;6.05;;
42768;SDS011;28423;60.010;30.406;2022-08-23T17:42:12;9.73;;;6.20;;
42768;SDS011;28423;60.010;30.406;2022-08-23T17:44:38;12.18;;;6.22;;
42768;SDS011;28423;60.010;30.406;2022-08-23T17:47:04;11.70;;;6.85;;
42768;SDS011;28423;60.010;30.406;2022-08-23T17:49:32;9.30;;;6.40;;
42768;SDS011;28423;60.010;30.406;2022-08-23T17:51:58;16.55;;;6.80;;
42768;SDS011;28423;60.010;30.406;2022-08-23T17:54:24;13.00;;;6.22;;
42768;SDS011;28423;60.010;30.406;2022-08-23T17:56:50;11.80;;;6.20;;
42768;SDS011;28423;60.010;30.406;2022-08-23T17:59:18;17.98;;;6.70;;
42768;SDS011;28423;60.010;30.406;2022-08-23T18:01:44;11.18;;;5.35;;
42768;SDS011;28423;60.010;30.406;2022-08-23T18:04:10;12.50;;;6.35;;
42768;SDS011;28423;60.010;30.406;2022-08-23T18:06:35;11.80;;;6.07;;
42768;SDS011;28423;60.010;30.406;2022-08-23T18:09:03;12.68;;;6.57;;
42768;SDS011;28423;60.010;30.406;2022-08-23T18:11:31;12.30;;;5.90;;
42768;SDS011;28423;60.010;30.406;2022-08-23T18:13:57;13.10;;;5.85;;
42768;SDS011;28423;60.010;30.406;2022-08-23T18:16:22;10.18;;;5.68;;
42768;SDS011;28423;60.010;30.406;2022-08-23T18:18:52;11.02;;;5.95;;
42768;SDS011;28423;60.010;30.406;2022-08-23T18:21:18;12.20;;;5.80;;
42768;SDS011;28423;60.010;30.406;2022-08-23T18:23:44;7.18;;;6.25;;
42768;SDS011;28423;60.010;30.406;2022-08-23T18:26:11;17.27;;;7.80;;
42768;SDS011;28423;60.010;30.406;2022-08-23T18:28:57;10.77;;;6.40;;
42768;SDS011;28423;60.010;30.406;2022-08-23T18:31:23;11.45;;;6.53;;
42768;SDS011;28423;60.010;30.406;2022-08-23T18:33:51;13.48;;;6.97;;
42768;SDS011;28423;60.010;30.406;2022-08-23T18:36:16;9.32;;;6.35;;
42768;SDS011;28423;60.010;30.406;2022-08-23T18:38:42;12.10;;;6.50;;
42768;SDS011;28423;60.010;30.406;2022-08-23T18:41:07;12.15;;;6.82;;
42768;SDS011;28423;60.010;30.406;2022-08-23T18:43:33;11.02;;;6.40;;
42768;SDS011;28423;60.010;30.406;2022-08-23T18:45:59;13.00;;;6.80;;
42768;SDS011;28423;60.010;30.406;2022-08-23T18:48:24;13.55;;;7.00;;
42768;SDS011;28423;60.010;30.406;2022-08-23T18:50:50;16.73;;;7.30;;
42768;SDS011;28423;60.010;30.406;2022-08-23T18:53:17;9.95;;;6.57;;
42768;SDS011;28423;60.010;30.406;2022-08-23T18:55:43;11.45;;;6.93;;
42768;SDS011;28423;60.010;30.406;2022-08-23T18:58:09;10.60;;;7.38;;
42768;SDS011;28423;60.010;30.406;2022-08-23T19:00:35;12.60;;;6.32;;
42768;SDS011;28423;60.010;30.406;2022-08-23T19:03:03;13.10;;;6.55;;
42768;SDS011;28423;60.010;30.406;2022-08-23T19:05:29;16.67;;;7.97;;
42768;SDS011;28423;60.010;30.406;2022-08-23T19:07:55;9.07;;;6.88;;
42768;SDS011;28423;60.010;30.406;2022-08-23T19:10:21;10.52;;;6.55;;
42768;SDS011;28423;60.010;30.406;2022-08-23T19:12:46;12.23;;;6.50;;
42768;SDS011;28423;60.010;30.406;2022-08-23T19:15:13;10.73;;;6.68;;
42768;SDS011;28423;60.010;30.406;2022-08-23T19:17:39;8.82;;;6.53;;
42768;SDS011;28423;60.010;30.406;2022-08-23T19:20:05;28.92;;;14.75;;
42768;SDS011;28423;60.010;30.406;2022-08-23T19:22:32;15.45;;;7.60;;
42768;SDS011;28423;60.010;30.406;2022-08-23T19:24:58;28.75;;;13.93;;
42768;SDS011;28423;60.010;30.406;2022-08-23T19:27:24;11.05;;;6.97;;
42768;SDS011;28423;60.010;30.406;2022-08-23T19:29:49;14.68;;;7.18;;
42768;SDS011;28423;60.010;30.406;2022-08-23T19:32:15;13.15;;;7.75;;
42768;SDS011;28423;60.010;30.406;2022-08-23T19:34:41;22.52;;;6.95;;
42768;SDS011;28423;60.010;30.406;2022-08-23T19:37:07;12.73;;;7.35;;
42768;SDS011;28423;60.010;30.406;2022-08-23T19:39:33;13.63;;;6.97;;
42768;SDS011;28423;60.010;30.406;2022-08-23T19:42:00;11.75;;;6.90;;
42768;SDS011;28423;60.010;30.406;2022-08-23T19:44:27;13.25;;;7.57;;
42768;SDS011;28423;60.010;30.406;2022-08-23T19:46:55;14.68;;;7.80;;
42768;SDS011;28423;60.010;30.406;2022-08-23T19:49:21;16.60;;;9.68;;
42768;SDS011;28423;60.010;30.406;2022-08-23T19:51:47;23.08;;;7.90;;
42768;SDS011;28423;60.010;30.406;2022-08-23T19:54:13;12.00;;;7.15;;
42768;SDS011;28423;60.010;30.406;2022-08-23T19:56:42;11.82;;;7.00;;
42768;SDS011;28423;60.010;30.406;2022-08-23T19:59:12;11.87;;;6.60;;
42768;SDS011;28423;60.010;30.406;2022-08-23T20:01:40;10.40;;;6.55;;
42768;SDS011;28423;60.010;30.406;2022-08-23T20:04:06;11.80;;;6.70;;
42768;SDS011;28423;60.010;30.406;2022-08-23T20:06:32;9.05;;;6.82;;
42768;SDS011;28423;60.010;30.406;2022-08-23T20:08:58;13.60;;;7.45;;
42768;SDS011;28423;60.010;30.406;2022-08-23T20:11:24;13.23;;;8.30;;
42768;SDS011;28423;60.010;30.406;2022-08-23T20:13:51;12.48;;;7.35;;
42768;SDS011;28423;60.010;30.406;2022-08-23T20:16:18;9.73;;;7.28;;
42768;SDS011;28423;60.010;30.406;2022-08-23T20:18:44;16.17;;;7.22;;
42768;SDS011;28423;60.010;30.406;2022-08-23T20:21:10;12.38;;;6.15;;
42768;SDS011;28423;60.010;30.406;2022-08-23T20:23:36;14.52;;;8.45;;
42768;SDS011;28423;60.010;30.406;2022-08-23T20:26:20;12.48;;;7.18;;
42768;SDS011;28423;60.010;30.406;2022-08-23T20:28:45;10.93;;;7.43;;
42768;SDS011;28423;60.010;30.406;2022-08-23T20:31:18;12.82;;;7.47;;
42768;SDS011;28423;60.010;30.406;2022-08-23T20:33:48;10.88;;;7.25;;
42768;SDS011;28423;60.010;30.406;2022-08-23T20:36:14;10.23;;;7.20;;
42768;SDS011;28423;60.010;30.406;2022-08-23T20:38:40;10.90;;;7.55;;
42768;SDS011;28423;60.010;30.406;2022-08-23T20:41:06;12.38;;;7.20;;
42768;SDS011;28423;60.010;30.406;2022-08-23T20:43:33;14.05;;;7.57;;
42768;SDS011;28423;60.010;30.406;2022-08-23T20:46:00;11.15;;;7.25;;
42768;SDS011;28423;60.010;30.406;2022-08-23T20:48:28;14.40;;;8.05;;
42768;SDS011;28423;60.010;30.406;2022-08-23T20:50:57;13.05;;;6.95;;
42768;SDS011;28423;60.010;30.406;2022-08-23T20:53:26;12.93;;;7.18;;
42768;SDS011;28423;60.010;30.406;2022-08-23T20:55:53;13.48;;;7.13;;
42768;SDS011;28423;60.010;30.406;2022-08-23T20:58:20;10.82;;;6.53;;
42768;SDS011;28423;60.010;30.406;2022-08-23T21:00:47;16.92;;;7.05;;
42768;SDS011;28423;60.010;30.406;2022-08-23T21:03:12;12.60;;;7.20;;
42768;SDS011;28423;60.010;30.406;2022-08-23T21:05:38;14.70;;;7.55;;
42768;SDS011;28423;60.010;30.406;2022-08-23T21:08:04;11.40;;;7.68;;
42768;SDS011;28423;60.010;30.406;2022-08-23T21:10:29;16.60;;;7.22;;
42768;SDS011;28423;60.010;30.406;2022-08-23T21:12:55;15.77;;;7.28;;
42768;SDS011;28423;60.010;30.406;2022-08-23T21:15:20;10.80;;;7.35;;
42768;SDS011;28423;60.010;30.406;2022-08-23T21:17:46;16.73;;;7.38;;
42768;SDS011;28423;60.010;30.406;2022-08-23T21:20:11;11.48;;;7.70;;
42768;SDS011;28423;60.010;30.406;2022-08-23T21:22:37;10.50;;;7.50;;
42768;SDS011;28423;60.010;30.406;2022-08-23T21:25:03;17.30;;;7.80;;
42768;SDS011;28423;60.010;30.406;2022-08-23T21:27:29;15.13;;;7.78;;
42768;SDS011;28423;60.010;30.406;2022-08-23T21:29:55;13.27;;;7.72;;
42768;SDS011;28423;60.010;30.406;2022-08-23T21:32:21;14.27;;;7.85;;
42768;SDS011;28423;60.010;30.406;2022-08-23T21:34:46;15.80;;;7.30;;
42768;SDS011;28423;60.010;30.406;2022-08-23T21:37:12;10.85;;;7.80;;
42768;SDS011;28423;60.010;30.406;2022-08-23T21:39:38;12.15;;;8.75;;
42768;SDS011;28423;60.010;30.406;2022-08-23T21:42:04;11.68;;;8.07;;
42768;SDS011;28423;60.010;30.406;2022-08-23T21:44:30;17.48;;;8.15;;
42768;SDS011;28423;60.010;30.406;2022-08-23T21:46:56;16.60;;;8.32;;
42768;SDS011;28423;60.010;30.406;2022-08-23T21:49:21;13.18;;;8.15;;
42768;SDS011;28423;60.010;30.406;2022-08-23T21:51:48;18.33;;;7.93;;
42768;SDS011;28423;60.010;30.406;2022-08-23T21:54:14;13.75;;;8.27;;
42768;SDS011;28423;60.010;30.406;2022-08-23T21:56:40;13.23;;;7.88;;
42768;SDS011;28423;60.010;30.406;2022-08-23T21:59:07;12.95;;;8.20;;
42768;SDS011;28423;60.010;30.406;2022-08-23T22:01:34;14.07;;;8.15;;
42768;SDS011;28423;60.010;30.406;2022-08-23T22:04:00;10.25;;;7.60;;
42768;SDS011;28423;60.010;30.406;2022-08-23T22:06:27;13.02;;;7.88;;
42768;SDS011;28423;60.010;30.406;2022-08-23T22:08:52;37.80;;;8.38;;
42768;SDS011;28423;60.010;30.406;2022-08-23T22:11:18;15.80;;;8.90;;
42768;SDS011;28423;60.010;30.406;2022-08-23T22:13:47;14.93;;;7.75;;
42768;SDS011;28423;60.010;30.406;2022-08-23T22:16:13;12.70;;;7.93;;
42768;SDS011;28423;60.010;30.406;2022-08-23T22:18:39;11.35;;;7.80;;
42768;SDS011;28423;60.010;30.406;2022-08-23T22:21:05;13.43;;;7.82;;
42768;SDS011;28423;60.010;30.406;2022-08-23T22:23:31;12.55;;;7.68;;
42768;SDS011;28423;60.010;30.406;2022-08-23T22:25:58;13.30;;;7.60;;
42768;SDS011;28423;60.010;30.406;2022-08-23T22:28:25;11.57;;;7.38;;
42768;SDS011;28423;60.010;30.406;2022-08-23T22:30:52;15.50;;;7.70;;
42768;SDS011;28423;60.010;30.406;2022-08-23T22:33:17;13.13;;;7.78;;
42768;SDS011;28423;60.010;30.406;2022-08-23T22:35:43;10.73;;;7.95;;
42768;SDS011;28423;60.010;30.406;2022-08-23T22:38:09;11.45;;;7.80;;
42768;SDS011;28423;60.010;30.406;2022-08-23T22:40:34;13.52;;;8.65;;
42768;SDS011;28423;60.010;30.406;2022-08-23T22:43:00;11.10;;;7.95;;
42768;SDS011;28423;60.010;30.406;2022-08-23T22:45:26;11.20;;;7.90;;
42768;SDS011;28423;60.010;30.406;2022-08-23T22:47:52;11.15;;;8.52;;
42768;SDS011;28423;60.010;30.406;2022-08-23T22:50:17;10.65;;;8.07;;
42768;SDS011;28423;60.010;30.406;2022-08-23T22:52:43;11.98;;;7.85;;
42768;SDS011;28423;60.010;30.406;2022-08-23T22:55:09;13.23;;;8.68;;
42768;SDS011;28423;60.010;30.406;2022-08-23T22:57:34;9.73;;;7.28;;
42768;SDS011;28423;60.010;30.406;2022-08-23T23:00:00;24.75;;;16.08;;
42768;SDS011;28423;60.010;30.406;2022-08-23T23:02:26;15.90;;;8.30;;
42768;SDS011;28423;60.010;30.406;2022-08-23T23:04:51;14.60;;;8.27;;
42768;SDS011;28423;60.010;30.406;2022-08-23T23:07:17;13.15;;;7.75;;
42768;SDS011;28423;60.010;30.406;2022-08-23T23:10:03;12.25;;;8.18;;
42768;SDS011;28423;60.010;30.406;2022-08-23T23:12:29;13.38;;;8.60;;
42768;SDS011;28423;60.010;30.406;2022-08-23T23:14:55;15.07;;;8.82;;
42768;SDS011;28423;60.010;30.406;2022-08-23T23:17:21;11.95;;;7.97;;
42768;SDS011;28423;60.010;30.406;2022-08-23T23:19:46;14.45;;;9.05;;
42768;SDS011;28423;60.010;30.406;2022-08-23T23:22:30;12.13;;;8.70;;
42768;SDS011;28423;60.010;30.406;2022-08-23T23:24:59;12.43;;;8.57;;
42768;SDS011;28423;60.010;30.406;2022-08-23T23:27:25;12.77;;;9.05;;
42768;SDS011;28423;60.010;30.406;2022-08-23T23:29:51;11.18;;;8.20;;
42768;SDS011;28423;60.010;30.406;2022-08-23T23:32:17;11.77;;;8.38;;
42768;SDS011;28423;60.010;30.406;2022-08-23T23:34:43;11.85;;;8.43;;
42768;SDS011;28423;60.010;30.406;2022-08-23T23:37:08;17.00;;;9.00;;
42768;SDS011;28423;60.010;30.406;2022-08-23T23:39:34;12.77;;;9.02;;
42768;SDS011;28423;60.010;30.406;2022-08-23T23:42:00;17.90;;;9.52;;
42768;SDS011;28423;60.010;30.406;2022-08-23T23:44:25;19.75;;;9.43;;
42768;SDS011;28423;60.010;30.406;2022-08-23T23:46:51;14.98;;;9.07;;
42768;SDS011;28423;60.010;30.406;2022-08-23T23:49:16;15.65;;;8.95;;
42768;SDS011;28423;60.010;30.406;2022-08-23T23:51:42;15.43;;;8.88;;
42768;SDS011;28423;60.010;30.406;2022-08-23T23:54:08;17.60;;;8.52;;
42768;SDS011;28423;60.010;30.406;2022-08-23T23:56:33;15.43;;;8.77;;
42768;SDS011;28423;60.010;30.406;2022-08-23T23:58:59;16.77;;;9.45;;
